sensor_id;sensor_type;location;lat;lon;timestamp;P1;durP1;ratioP1;P2;durP2;ratioP2
12784;SDS011;6456;42.680;23.260;2022-11-15T00:00:46;68.73;;;42.53;;
12784;SDS011;6456;42.680;23.260;2022-11-15T00:03:14;61.87;;;40.47;;
12784;SDS011;6456;42.680;23.260;2022-11-15T00:05:41;62.40;;;42.33;;
12784;SDS011;6456;42.680;23.260;2022-11-15T00:08:09;64.90;;;41.37;;
12784;SDS011;6456;42.680;23.260;2022-11-15T00:10:37;66.53;;;40.07;;
12784;SDS011;6456;42.680;23.260;2022-11-15T00:13:04;64.40;;;41.90;;
12784;SDS011;6456;42.680;23.260;2022-11-15T00:15:34;58.53;;;39.23;;
12784;SDS011;6456;42.680;23.260;2022-11-15T00:18:01;61.30;;;38.87;;
12784;SDS011;6456;42.680;23.260;2022-11-15T00:20:28;55.37;;;36.17;;
12784;SDS011;6456;42.680;23.260;2022-11-15T00:22:56;57.07;;;36.77;;
12784;SDS011;6456;42.680;23.260;2022-11-15T00:25:24;56.67;;;37.63;;
12784;SDS011;6456;42.680;23.260;2022-11-15T00:27:54;62.93;;;36.80;;
12784;SDS011;6456;42.680;23.260;2022-11-15T00:30:22;59.87;;;36.90;;
12784;SDS011;6456;42.680;23.260;2022-11-15T00:32:48;55.83;;;36.47;;
12784;SDS011;6456;42.680;23.260;2022-11-15T00:35:15;52.43;;;34.93;;
12784;SDS011;6456;42.680;23.260;2022-11-15T00:37:42;51.60;;;34.80;;
12784;SDS011;6456;42.680;23.260;2022-11-15T00:40:10;53.37;;;34.93;;
12784;SDS011;6456;42.680;23.260;2022-11-15T00:42:39;56.57;;;35.73;;
12784;SDS011;6456;42.680;23.260;2022-11-15T00:45:07;54.20;;;33.90;;
12784;SDS011;6456;42.680;23.260;2022-11-15T00:47:35;51.30;;;33.33;;
12784;SDS011;6456;42.680;23.260;2022-11-15T00:50:02;53.27;;;33.83;;
12784;SDS011;6456;42.680;23.260;2022-11-15T00:52:30;51.57;;;34.87;;
12784;SDS011;6456;42.680;23.260;2022-11-15T00:54:56;58.30;;;36.83;;
12784;SDS011;6456;42.680;23.260;2022-11-15T00:57:23;49.77;;;33.80;;
12784;SDS011;6456;42.680;23.260;2022-11-15T00:59:51;54.40;;;34.13;;
12784;SDS011;6456;42.680;23.260;2022-11-15T01:02:18;55.27;;;36.53;;
12784;SDS011;6456;42.680;23.260;2022-11-15T01:04:45;55.73;;;36.27;;
12784;SDS011;6456;42.680;23.260;2022-11-15T01:07:12;61.37;;;37.17;;
12784;SDS011;6456;42.680;23.260;2022-11-15T01:09:39;60.13;;;36.60;;
12784;SDS011;6456;42.680;23.260;2022-11-15T01:12:06;56.27;;;35.90;;
12784;SDS011;6456;42.680;23.260;2022-11-15T01:14:33;52.83;;;34.70;;
12784;SDS011;6456;42.680;23.260;2022-11-15T01:17:01;49.63;;;33.17;;
12784;SDS011;6456;42.680;23.260;2022-11-15T01:19:28;54.80;;;34.90;;
12784;SDS011;6456;42.680;23.260;2022-11-15T01:21:55;56.50;;;35.90;;
12784;SDS011;6456;42.680;23.260;2022-11-15T01:24:22;54.33;;;36.53;;
12784;SDS011;6456;42.680;23.260;2022-11-15T01:26:49;55.90;;;35.27;;
12784;SDS011;6456;42.680;23.260;2022-11-15T01:29:16;53.50;;;35.10;;
12784;SDS011;6456;42.680;23.260;2022-11-15T01:31:43;52.87;;;33.83;;
12784;SDS011;6456;42.680;23.260;2022-11-15T01:34:11;58.27;;;35.37;;
12784;SDS011;6456;42.680;23.260;2022-11-15T01:36:38;52.70;;;34.40;;
12784;SDS011;6456;42.680;23.260;2022-11-15T01:39:05;54.63;;;34.20;;
12784;SDS011;6456;42.680;23.260;2022-11-15T01:41:32;50.43;;;33.83;;
12784;SDS011;6456;42.680;23.260;2022-11-15T01:47:01;54.80;;;34.93;;
12784;SDS011;6456;42.680;23.260;2022-11-15T01:49:35;52.83;;;34.30;;
12784;SDS011;6456;42.680;23.260;2022-11-15T01:52:07;54.57;;;35.53;;
12784;SDS011;6456;42.680;23.260;2022-11-15T01:54:37;56.60;;;36.93;;
12784;SDS011;6456;42.680;23.260;2022-11-15T01:57:06;55.00;;;35.57;;
12784;SDS011;6456;42.680;23.260;2022-11-15T01:59:36;56.83;;;36.53;;
12784;SDS011;6456;42.680;23.260;2022-11-15T02:02:04;53.53;;;36.23;;
12784;SDS011;6456;42.680;23.260;2022-11-15T02:04:32;56.23;;;35.00;;
12784;SDS011;6456;42.680;23.260;2022-11-15T02:07:02;57.23;;;35.27;;
12784;SDS011;6456;42.680;23.260;2022-11-15T02:09:31;53.40;;;34.33;;
12784;SDS011;6456;42.680;23.260;2022-11-15T02:11:58;49.50;;;33.27;;
12784;SDS011;6456;42.680;23.260;2022-11-15T02:14:26;49.40;;;33.53;;
12784;SDS011;6456;42.680;23.260;2022-11-15T02:16:58;51.03;;;33.57;;
12784;SDS011;6456;42.680;23.260;2022-11-15T02:19:33;49.17;;;32.90;;
12784;SDS011;6456;42.680;23.260;2022-11-15T02:22:25;49.07;;;32.00;;
12784;SDS011;6456;42.680;23.260;2022-11-15T02:25:06;52.50;;;32.60;;
12784;SDS011;6456;42.680;23.260;2022-11-15T02:27:57;52.00;;;33.10;;
12784;SDS011;6456;42.680;23.260;2022-11-15T02:30:39;47.13;;;31.30;;
12784;SDS011;6456;42.680;23.260;2022-11-15T02:33:12;51.23;;;32.57;;
12784;SDS011;6456;42.680;23.260;2022-11-15T02:35:48;47.53;;;31.87;;
12784;SDS011;6456;42.680;23.260;2022-11-15T02:38:25;48.13;;;31.33;;
12784;SDS011;6456;42.680;23.260;2022-11-15T02:41:00;48.27;;;30.57;;
12784;SDS011;6456;42.680;23.260;2022-11-15T02:43:32;43.27;;;30.70;;
12784;SDS011;6456;42.680;23.260;2022-11-15T02:46:23;48.67;;;30.60;;
12784;SDS011;6456;42.680;23.260;2022-11-15T02:49:10;45.73;;;29.53;;
12784;SDS011;6456;42.680;23.260;2022-11-15T02:51:39;45.73;;;30.50;;
12784;SDS011;6456;42.680;23.260;2022-11-15T02:54:10;45.07;;;29.73;;
12784;SDS011;6456;42.680;23.260;2022-11-15T02:56:39;43.27;;;29.17;;
12784;SDS011;6456;42.680;23.260;2022-11-15T02:59:10;41.60;;;28.07;;
12784;SDS011;6456;42.680;23.260;2022-11-15T03:02:04;45.67;;;29.17;;
12784;SDS011;6456;42.680;23.260;2022-11-15T03:04:44;45.53;;;29.33;;
12784;SDS011;6456;42.680;23.260;2022-11-15T03:07:19;45.07;;;30.57;;
12784;SDS011;6456;42.680;23.260;2022-11-15T03:09:56;45.83;;;29.20;;
12784;SDS011;6456;42.680;23.260;2022-11-15T03:12:30;47.10;;;30.20;;
12784;SDS011;6456;42.680;23.260;2022-11-15T03:15:05;48.37;;;29.53;;
12784;SDS011;6456;42.680;23.260;2022-11-15T03:17:37;47.97;;;31.10;;
12784;SDS011;6456;42.680;23.260;2022-11-15T03:20:08;46.90;;;30.67;;
12784;SDS011;6456;42.680;23.260;2022-11-15T03:22:38;46.20;;;29.47;;
12784;SDS011;6456;42.680;23.260;2022-11-15T03:25:09;48.43;;;28.30;;
12784;SDS011;6456;42.680;23.260;2022-11-15T03:27:41;41.17;;;28.07;;
12784;SDS011;6456;42.680;23.260;2022-11-15T03:30:12;43.37;;;28.70;;
12784;SDS011;6456;42.680;23.260;2022-11-15T03:32:41;40.00;;;26.70;;
12784;SDS011;6456;42.680;23.260;2022-11-15T03:35:12;40.97;;;27.30;;
12784;SDS011;6456;42.680;23.260;2022-11-15T03:37:45;41.40;;;26.37;;
12784;SDS011;6456;42.680;23.260;2022-11-15T03:40:16;41.00;;;26.70;;
12784;SDS011;6456;42.680;23.260;2022-11-15T03:42:48;36.03;;;25.13;;
12784;SDS011;6456;42.680;23.260;2022-11-15T03:45:26;38.10;;;24.33;;
12784;SDS011;6456;42.680;23.260;2022-11-15T03:47:59;42.03;;;28.17;;
12784;SDS011;6456;42.680;23.260;2022-11-15T03:50:30;43.90;;;28.03;;
12784;SDS011;6456;42.680;23.260;2022-11-15T03:52:58;41.87;;;27.97;;
12784;SDS011;6456;42.680;23.260;2022-11-15T03:55:25;39.93;;;27.60;;
12784;SDS011;6456;42.680;23.260;2022-11-15T03:57:53;35.70;;;25.37;;
12784;SDS011;6456;42.680;23.260;2022-11-15T04:00:25;38.00;;;26.50;;
12784;SDS011;6456;42.680;23.260;2022-11-15T04:02:52;38.83;;;27.13;;
12784;SDS011;6456;42.680;23.260;2022-11-15T04:05:20;41.20;;;27.40;;
12784;SDS011;6456;42.680;23.260;2022-11-15T04:07:47;45.27;;;28.50;;
12784;SDS011;6456;42.680;23.260;2022-11-15T04:10:14;38.57;;;26.50;;
12784;SDS011;6456;42.680;23.260;2022-11-15T04:12:43;40.33;;;27.47;;
12784;SDS011;6456;42.680;23.260;2022-11-15T04:15:13;42.83;;;28.53;;
12784;SDS011;6456;42.680;23.260;2022-11-15T04:17:42;45.37;;;29.50;;
12784;SDS011;6456;42.680;23.260;2022-11-15T04:20:11;40.27;;;27.50;;
12784;SDS011;6456;42.680;23.260;2022-11-15T04:22:58;41.93;;;27.87;;
12784;SDS011;6456;42.680;23.260;2022-11-15T04:25:43;45.47;;;28.70;;
12784;SDS011;6456;42.680;23.260;2022-11-15T04:28:11;41.37;;;27.60;;
12784;SDS011;6456;42.680;23.260;2022-11-15T04:30:38;43.73;;;28.40;;
12784;SDS011;6456;42.680;23.260;2022-11-15T04:33:05;47.57;;;30.40;;
12784;SDS011;6456;42.680;23.260;2022-11-15T04:35:32;42.57;;;28.23;;
12784;SDS011;6456;42.680;23.260;2022-11-15T04:38:01;46.73;;;29.10;;
12784;SDS011;6456;42.680;23.260;2022-11-15T04:40:27;47.77;;;29.87;;
12784;SDS011;6456;42.680;23.260;2022-11-15T04:42:54;52.57;;;31.30;;
12784;SDS011;6456;42.680;23.260;2022-11-15T04:45:21;58.47;;;31.67;;
12784;SDS011;6456;42.680;23.260;2022-11-15T04:47:48;74.90;;;34.37;;
12784;SDS011;6456;42.680;23.260;2022-11-15T04:50:15;66.03;;;31.30;;
12784;SDS011;6456;42.680;23.260;2022-11-15T04:52:43;64.67;;;33.07;;
12784;SDS011;6456;42.680;23.260;2022-11-15T04:55:20;64.07;;;33.57;;
12784;SDS011;6456;42.680;23.260;2022-11-15T04:57:47;69.67;;;32.60;;
12784;SDS011;6456;42.680;23.260;2022-11-15T05:00:23;64.47;;;32.93;;
12784;SDS011;6456;42.680;23.260;2022-11-15T05:02:49;81.33;;;35.53;;
12784;SDS011;6456;42.680;23.260;2022-11-15T05:05:31;65.60;;;33.73;;
12784;SDS011;6456;42.680;23.260;2022-11-15T05:07:57;78.90;;;36.37;;
12784;SDS011;6456;42.680;23.260;2022-11-15T05:10:26;75.17;;;36.13;;
12784;SDS011;6456;42.680;23.260;2022-11-15T05:12:53;72.73;;;35.63;;
12784;SDS011;6456;42.680;23.260;2022-11-15T05:15:19;79.33;;;37.33;;
12784;SDS011;6456;42.680;23.260;2022-11-15T05:17:46;77.87;;;39.67;;
12784;SDS011;6456;42.680;23.260;2022-11-15T05:20:13;87.63;;;43.73;;
12784;SDS011;6456;42.680;23.260;2022-11-15T05:22:40;89.43;;;43.57;;
12784;SDS011;6456;42.680;23.260;2022-11-15T05:25:07;90.63;;;43.83;;
12784;SDS011;6456;42.680;23.260;2022-11-15T05:27:36;81.50;;;43.90;;
12784;SDS011;6456;42.680;23.260;2022-11-15T05:30:02;88.20;;;42.97;;
12784;SDS011;6456;42.680;23.260;2022-11-15T05:32:30;87.30;;;44.37;;
12784;SDS011;6456;42.680;23.260;2022-11-15T05:34:57;87.27;;;44.03;;
12784;SDS011;6456;42.680;23.260;2022-11-15T05:37:24;90.50;;;44.47;;
12784;SDS011;6456;42.680;23.260;2022-11-15T05:39:51;100.33;;;44.90;;
12784;SDS011;6456;42.680;23.260;2022-11-15T05:42:17;102.57;;;46.60;;
12784;SDS011;6456;42.680;23.260;2022-11-15T05:44:47;111.47;;;50.20;;
12784;SDS011;6456;42.680;23.260;2022-11-15T05:47:17;114.43;;;47.40;;
12784;SDS011;6456;42.680;23.260;2022-11-15T05:49:47;98.63;;;45.17;;
12784;SDS011;6456;42.680;23.260;2022-11-15T05:52:18;105.33;;;47.97;;
12784;SDS011;6456;42.680;23.260;2022-11-15T05:54:49;138.40;;;55.33;;
12784;SDS011;6456;42.680;23.260;2022-11-15T05:57:17;155.00;;;62.27;;
12784;SDS011;6456;42.680;23.260;2022-11-15T05:59:44;144.30;;;60.87;;
12784;SDS011;6456;42.680;23.260;2022-11-15T06:02:12;168.27;;;61.23;;
12784;SDS011;6456;42.680;23.260;2022-11-15T06:04:39;171.20;;;60.03;;
12784;SDS011;6456;42.680;23.260;2022-11-15T06:07:06;116.73;;;48.13;;
12784;SDS011;6456;42.680;23.260;2022-11-15T06:09:33;87.27;;;40.00;;
12784;SDS011;6456;42.680;23.260;2022-11-15T06:11:59;82.13;;;36.40;;
12784;SDS011;6456;42.680;23.260;2022-11-15T06:14:26;105.00;;;35.57;;
12784;SDS011;6456;42.680;23.260;2022-11-15T06:16:53;93.40;;;35.50;;
12784;SDS011;6456;42.680;23.260;2022-11-15T06:19:21;101.90;;;41.63;;
12784;SDS011;6456;42.680;23.260;2022-11-15T06:21:48;116.77;;;39.50;;
12784;SDS011;6456;42.680;23.260;2022-11-15T06:24:15;102.80;;;38.83;;
12784;SDS011;6456;42.680;23.260;2022-11-15T06:26:42;120.43;;;43.37;;
12784;SDS011;6456;42.680;23.260;2022-11-15T06:29:09;113.23;;;43.20;;
12784;SDS011;6456;42.680;23.260;2022-11-15T06:31:36;126.67;;;43.60;;
12784;SDS011;6456;42.680;23.260;2022-11-15T06:34:02;108.80;;;41.33;;
12784;SDS011;6456;42.680;23.260;2022-11-15T06:36:31;102.87;;;41.70;;
12784;SDS011;6456;42.680;23.260;2022-11-15T06:39:00;89.30;;;39.70;;
12784;SDS011;6456;42.680;23.260;2022-11-15T06:41:27;106.87;;;43.80;;
12784;SDS011;6456;42.680;23.260;2022-11-15T06:43:54;113.90;;;44.60;;
12784;SDS011;6456;42.680;23.260;2022-11-15T06:46:21;97.50;;;42.57;;
12784;SDS011;6456;42.680;23.260;2022-11-15T06:48:52;96.47;;;43.70;;
12784;SDS011;6456;42.680;23.260;2022-11-15T06:51:24;77.93;;;38.43;;
12784;SDS011;6456;42.680;23.260;2022-11-15T06:53:52;92.60;;;42.00;;
12784;SDS011;6456;42.680;23.260;2022-11-15T06:56:19;109.70;;;50.97;;
12784;SDS011;6456;42.680;23.260;2022-11-15T06:58:45;123.97;;;54.43;;
12784;SDS011;6456;42.680;23.260;2022-11-15T07:01:12;119.70;;;52.03;;
12784;SDS011;6456;42.680;23.260;2022-11-15T07:03:40;109.83;;;48.73;;
12784;SDS011;6456;42.680;23.260;2022-11-15T07:06:08;92.00;;;42.77;;
12784;SDS011;6456;42.680;23.260;2022-11-15T07:08:36;107.97;;;46.40;;
12784;SDS011;6456;42.680;23.260;2022-11-15T07:11:05;91.97;;;42.80;;
12784;SDS011;6456;42.680;23.260;2022-11-15T07:13:33;98.83;;;44.10;;
12784;SDS011;6456;42.680;23.260;2022-11-15T07:16:02;82.20;;;41.70;;
12784;SDS011;6456;42.680;23.260;2022-11-15T07:18:30;86.07;;;40.10;;
12784;SDS011;6456;42.680;23.260;2022-11-15T07:21:00;93.80;;;40.77;;
12784;SDS011;6456;42.680;23.260;2022-11-15T07:23:27;81.60;;;40.10;;
12784;SDS011;6456;42.680;23.260;2022-11-15T07:25:55;84.60;;;40.97;;
12784;SDS011;6456;42.680;23.260;2022-11-15T07:28:24;86.03;;;40.13;;
12784;SDS011;6456;42.680;23.260;2022-11-15T07:30:51;87.33;;;38.73;;
12784;SDS011;6456;42.680;23.260;2022-11-15T07:33:18;78.00;;;39.17;;
12784;SDS011;6456;42.680;23.260;2022-11-15T07:35:45;80.60;;;39.57;;
12784;SDS011;6456;42.680;23.260;2022-11-15T07:38:14;91.57;;;40.90;;
12784;SDS011;6456;42.680;23.260;2022-11-15T07:40:44;84.87;;;41.83;;
12784;SDS011;6456;42.680;23.260;2022-11-15T07:43:12;102.97;;;42.93;;
12784;SDS011;6456;42.680;23.260;2022-11-15T07:45:44;86.60;;;41.70;;
12784;SDS011;6456;42.680;23.260;2022-11-15T07:48:11;92.67;;;42.80;;
12784;SDS011;6456;42.680;23.260;2022-11-15T07:50:40;95.97;;;42.27;;
12784;SDS011;6456;42.680;23.260;2022-11-15T07:53:07;95.17;;;42.30;;
12784;SDS011;6456;42.680;23.260;2022-11-15T07:55:35;89.33;;;42.67;;
12784;SDS011;6456;42.680;23.260;2022-11-15T07:58:02;105.57;;;45.27;;
12784;SDS011;6456;42.680;23.260;2022-11-15T08:00:30;90.73;;;43.17;;
12784;SDS011;6456;42.680;23.260;2022-11-15T08:03:02;91.37;;;43.00;;
12784;SDS011;6456;42.680;23.260;2022-11-15T08:05:31;94.17;;;43.20;;
12784;SDS011;6456;42.680;23.260;2022-11-15T08:07:58;94.90;;;44.33;;
12784;SDS011;6456;42.680;23.260;2022-11-15T08:10:25;98.00;;;45.23;;
12784;SDS011;6456;42.680;23.260;2022-11-15T08:12:57;87.90;;;42.10;;
12784;SDS011;6456;42.680;23.260;2022-11-15T08:15:24;95.43;;;44.60;;
12784;SDS011;6456;42.680;23.260;2022-11-15T08:17:55;87.73;;;43.33;;
12784;SDS011;6456;42.680;23.260;2022-11-15T08:20:24;99.10;;;46.20;;
12784;SDS011;6456;42.680;23.260;2022-11-15T08:22:51;96.57;;;44.07;;
12784;SDS011;6456;42.680;23.260;2022-11-15T08:25:18;92.27;;;43.80;;
12784;SDS011;6456;42.680;23.260;2022-11-15T08:27:45;100.07;;;46.00;;
12784;SDS011;6456;42.680;23.260;2022-11-15T08:30:12;102.30;;;48.00;;
12784;SDS011;6456;42.680;23.260;2022-11-15T08:32:41;106.90;;;48.13;;
12784;SDS011;6456;42.680;23.260;2022-11-15T08:35:08;115.07;;;50.43;;
12784;SDS011;6456;42.680;23.260;2022-11-15T08:37:36;112.33;;;48.83;;
12784;SDS011;6456;42.680;23.260;2022-11-15T08:40:03;109.47;;;50.63;;
12784;SDS011;6456;42.680;23.260;2022-11-15T08:42:31;106.60;;;51.27;;
12784;SDS011;6456;42.680;23.260;2022-11-15T08:44:58;112.60;;;51.27;;
12784;SDS011;6456;42.680;23.260;2022-11-15T08:47:25;109.37;;;51.30;;
12784;SDS011;6456;42.680;23.260;2022-11-15T08:49:52;115.87;;;52.77;;
12784;SDS011;6456;42.680;23.260;2022-11-15T08:52:19;122.60;;;54.97;;
12784;SDS011;6456;42.680;23.260;2022-11-15T08:54:47;123.93;;;53.30;;
12784;SDS011;6456;42.680;23.260;2022-11-15T08:57:14;105.03;;;52.07;;
12784;SDS011;6456;42.680;23.260;2022-11-15T08:59:41;116.63;;;51.70;;
12784;SDS011;6456;42.680;23.260;2022-11-15T09:02:10;109.57;;;53.23;;
12784;SDS011;6456;42.680;23.260;2022-11-15T09:04:39;120.83;;;54.37;;
12784;SDS011;6456;42.680;23.260;2022-11-15T09:07:07;115.70;;;55.03;;
12784;SDS011;6456;42.680;23.260;2022-11-15T09:09:34;115.27;;;52.70;;
12784;SDS011;6456;42.680;23.260;2022-11-15T09:12:02;125.70;;;56.07;;
12784;SDS011;6456;42.680;23.260;2022-11-15T09:14:30;120.03;;;56.73;;
12784;SDS011;6456;42.680;23.260;2022-11-15T09:16:57;112.80;;;53.87;;
12784;SDS011;6456;42.680;23.260;2022-11-15T09:19:24;112.87;;;53.53;;
12784;SDS011;6456;42.680;23.260;2022-11-15T09:21:51;105.87;;;52.53;;
12784;SDS011;6456;42.680;23.260;2022-11-15T09:24:18;109.10;;;52.17;;
12784;SDS011;6456;42.680;23.260;2022-11-15T09:26:45;106.10;;;51.73;;
12784;SDS011;6456;42.680;23.260;2022-11-15T09:29:13;114.57;;;53.77;;
12784;SDS011;6456;42.680;23.260;2022-11-15T09:31:40;113.37;;;54.00;;
12784;SDS011;6456;42.680;23.260;2022-11-15T09:34:07;121.00;;;54.80;;
12784;SDS011;6456;42.680;23.260;2022-11-15T09:36:34;111.50;;;53.83;;
12784;SDS011;6456;42.680;23.260;2022-11-15T09:39:01;124.20;;;57.37;;
12784;SDS011;6456;42.680;23.260;2022-11-15T09:41:34;125.40;;;58.00;;
12784;SDS011;6456;42.680;23.260;2022-11-15T09:44:22;126.63;;;57.57;;
12784;SDS011;6456;42.680;23.260;2022-11-15T09:47:05;109.90;;;56.03;;
12784;SDS011;6456;42.680;23.260;2022-11-15T09:49:44;112.20;;;56.73;;
12784;SDS011;6456;42.680;23.260;2022-11-15T09:52:12;138.67;;;62.37;;
12784;SDS011;6456;42.680;23.260;2022-11-15T09:54:41;109.50;;;56.50;;
12784;SDS011;6456;42.680;23.260;2022-11-15T09:57:13;108.83;;;54.70;;
12784;SDS011;6456;42.680;23.260;2022-11-15T09:59:50;125.30;;;54.37;;
12784;SDS011;6456;42.680;23.260;2022-11-15T10:02:36;102.83;;;56.23;;
12784;SDS011;6456;42.680;23.260;2022-11-15T10:05:14;104.73;;;55.57;;
12784;SDS011;6456;42.680;23.260;2022-11-15T10:07:46;106.53;;;55.67;;
12784;SDS011;6456;42.680;23.260;2022-11-15T10:10:22;115.80;;;56.13;;
12784;SDS011;6456;42.680;23.260;2022-11-15T10:12:56;113.47;;;59.47;;
12784;SDS011;6456;42.680;23.260;2022-11-15T10:15:25;111.17;;;57.00;;
12784;SDS011;6456;42.680;23.260;2022-11-15T10:17:55;106.50;;;56.37;;
12784;SDS011;6456;42.680;23.260;2022-11-15T10:20:46;99.43;;;54.43;;
12784;SDS011;6456;42.680;23.260;2022-11-15T10:23:15;103.80;;;54.93;;
12784;SDS011;6456;42.680;23.260;2022-11-15T10:25:44;103.37;;;54.27;;
12784;SDS011;6456;42.680;23.260;2022-11-15T10:28:13;91.23;;;52.20;;
12784;SDS011;6456;42.680;23.260;2022-11-15T10:30:44;89.70;;;49.70;;
12784;SDS011;6456;42.680;23.260;2022-11-15T10:33:24;90.63;;;52.93;;
12784;SDS011;6456;42.680;23.260;2022-11-15T10:38:55;82.97;;;48.93;;
12784;SDS011;6456;42.680;23.260;2022-11-15T10:41:35;78.43;;;47.30;;
12784;SDS011;6456;42.680;23.260;2022-11-15T10:44:18;83.67;;;47.73;;
12784;SDS011;6456;42.680;23.260;2022-11-15T10:49:52;77.73;;;43.83;;
12784;SDS011;6456;42.680;23.260;2022-11-15T10:52:27;72.67;;;45.17;;
12784;SDS011;6456;42.680;23.260;2022-11-15T10:54:57;78.57;;;46.77;;
12784;SDS011;6456;42.680;23.260;2022-11-15T10:57:29;77.03;;;47.53;;
12784;SDS011;6456;42.680;23.260;2022-11-15T10:59:59;78.20;;;46.43;;
12784;SDS011;6456;42.680;23.260;2022-11-15T11:02:30;74.43;;;43.80;;
12784;SDS011;6456;42.680;23.260;2022-11-15T11:05:00;74.30;;;44.80;;
12784;SDS011;6456;42.680;23.260;2022-11-15T11:07:29;72.03;;;45.13;;
12784;SDS011;6456;42.680;23.260;2022-11-15T11:09:58;71.07;;;44.33;;
12784;SDS011;6456;42.680;23.260;2022-11-15T11:12:28;71.90;;;45.07;;
12784;SDS011;6456;42.680;23.260;2022-11-15T11:14:57;73.53;;;45.47;;
12784;SDS011;6456;42.680;23.260;2022-11-15T11:17:30;73.33;;;46.77;;
12784;SDS011;6456;42.680;23.260;2022-11-15T11:20:07;78.50;;;47.93;;
12784;SDS011;6456;42.680;23.260;2022-11-15T11:22:49;72.40;;;45.90;;
12784;SDS011;6456;42.680;23.260;2022-11-15T11:25:26;86.47;;;45.17;;
12784;SDS011;6456;42.680;23.260;2022-11-15T11:28:01;84.40;;;47.53;;
12784;SDS011;6456;42.680;23.260;2022-11-15T11:30:45;73.07;;;44.50;;
12784;SDS011;6456;42.680;23.260;2022-11-15T11:33:20;75.03;;;44.83;;
12784;SDS011;6456;42.680;23.260;2022-11-15T11:35:59;78.23;;;45.60;;
12784;SDS011;6456;42.680;23.260;2022-11-15T11:38:45;76.30;;;45.73;;
12784;SDS011;6456;42.680;23.260;2022-11-15T11:41:37;86.60;;;47.57;;
12784;SDS011;6456;42.680;23.260;2022-11-15T11:44:14;77.50;;;46.33;;
12784;SDS011;6456;42.680;23.260;2022-11-15T11:46:54;74.97;;;47.13;;
12784;SDS011;6456;42.680;23.260;2022-11-15T11:49:26;71.97;;;46.33;;
12784;SDS011;6456;42.680;23.260;2022-11-15T11:52:00;93.53;;;48.80;;
12784;SDS011;6456;42.680;23.260;2022-11-15T11:54:34;84.10;;;48.83;;
12784;SDS011;6456;42.680;23.260;2022-11-15T11:57:10;75.57;;;48.63;;
12784;SDS011;6456;42.680;23.260;2022-11-15T11:59:46;75.93;;;47.50;;
12784;SDS011;6456;42.680;23.260;2022-11-15T12:02:20;80.77;;;47.20;;
12784;SDS011;6456;42.680;23.260;2022-11-15T12:04:57;87.13;;;49.97;;
12784;SDS011;6456;42.680;23.260;2022-11-15T12:07:31;79.40;;;48.00;;
12784;SDS011;6456;42.680;23.260;2022-11-15T12:10:01;79.17;;;49.10;;
12784;SDS011;6456;42.680;23.260;2022-11-15T12:12:34;75.43;;;46.83;;
12784;SDS011;6456;42.680;23.260;2022-11-15T12:15:09;75.73;;;47.33;;
12784;SDS011;6456;42.680;23.260;2022-11-15T12:17:40;78.80;;;48.03;;
12784;SDS011;6456;42.680;23.260;2022-11-15T12:20:16;76.73;;;48.27;;
12784;SDS011;6456;42.680;23.260;2022-11-15T12:22:46;79.93;;;47.27;;
12784;SDS011;6456;42.680;23.260;2022-11-15T12:25:18;78.83;;;50.53;;
12784;SDS011;6456;42.680;23.260;2022-11-15T12:27:50;84.43;;;50.00;;
12784;SDS011;6456;42.680;23.260;2022-11-15T12:30:22;87.10;;;50.27;;
12784;SDS011;6456;42.680;23.260;2022-11-15T12:32:52;75.73;;;47.40;;
12784;SDS011;6456;42.680;23.260;2022-11-15T12:35:28;79.90;;;50.30;;
12784;SDS011;6456;42.680;23.260;2022-11-15T12:38:01;94.03;;;50.70;;
12784;SDS011;6456;42.680;23.260;2022-11-15T12:40:29;72.03;;;47.93;;
12784;SDS011;6456;42.680;23.260;2022-11-15T12:42:59;80.20;;;50.83;;
12784;SDS011;6456;42.680;23.260;2022-11-15T12:45:29;81.80;;;50.80;;
12784;SDS011;6456;42.680;23.260;2022-11-15T12:48:23;81.73;;;50.50;;
12784;SDS011;6456;42.680;23.260;2022-11-15T12:57:26;81.33;;;50.90;;
12784;SDS011;6456;42.680;23.260;2022-11-15T12:59:57;82.27;;;52.20;;
12784;SDS011;6456;42.680;23.260;2022-11-15T13:02:27;84.17;;;50.47;;
12784;SDS011;6456;42.680;23.260;2022-11-15T13:08:06;89.67;;;51.07;;
12784;SDS011;6456;42.680;23.260;2022-11-15T13:10:33;85.13;;;53.13;;
12784;SDS011;6456;42.680;23.260;2022-11-15T13:13:01;96.47;;;54.80;;
12784;SDS011;6456;42.680;23.260;2022-11-15T13:18:29;88.03;;;51.67;;
12784;SDS011;6456;42.680;23.260;2022-11-15T13:21:02;89.77;;;52.63;;
12784;SDS011;6456;42.680;23.260;2022-11-15T13:23:54;87.10;;;52.77;;
12784;SDS011;6456;42.680;23.260;2022-11-15T13:26:22;93.07;;;54.70;;
12784;SDS011;6456;42.680;23.260;2022-11-15T13:28:49;84.93;;;54.17;;
12784;SDS011;6456;42.680;23.260;2022-11-15T13:31:28;79.50;;;52.90;;
12784;SDS011;6456;42.680;23.260;2022-11-15T13:34:01;85.30;;;51.73;;
12784;SDS011;6456;42.680;23.260;2022-11-15T13:36:31;84.77;;;51.87;;
12784;SDS011;6456;42.680;23.260;2022-11-15T13:39:02;78.30;;;50.23;;
12784;SDS011;6456;42.680;23.260;2022-11-15T13:41:31;83.10;;;50.27;;
12784;SDS011;6456;42.680;23.260;2022-11-15T13:43:59;79.17;;;49.40;;
12784;SDS011;6456;42.680;23.260;2022-11-15T13:46:28;87.90;;;52.30;;
12784;SDS011;6456;42.680;23.260;2022-11-15T13:48:57;79.57;;;50.90;;
12784;SDS011;6456;42.680;23.260;2022-11-15T13:51:30;80.87;;;49.80;;
12784;SDS011;6456;42.680;23.260;2022-11-15T13:54:03;85.60;;;52.60;;
12784;SDS011;6456;42.680;23.260;2022-11-15T13:56:35;83.93;;;50.47;;
12784;SDS011;6456;42.680;23.260;2022-11-15T13:59:08;89.10;;;53.50;;
12784;SDS011;6456;42.680;23.260;2022-11-15T14:01:35;87.00;;;55.67;;
12784;SDS011;6456;42.680;23.260;2022-11-15T14:04:03;91.30;;;58.60;;
12784;SDS011;6456;42.680;23.260;2022-11-15T14:06:30;112.73;;;74.03;;
12784;SDS011;6456;42.680;23.260;2022-11-15T14:09:04;100.30;;;67.50;;
12784;SDS011;6456;42.680;23.260;2022-11-15T14:11:50;99.17;;;65.43;;
12784;SDS011;6456;42.680;23.260;2022-11-15T14:14:19;104.40;;;63.33;;
12784;SDS011;6456;42.680;23.260;2022-11-15T14:16:48;98.97;;;59.60;;
12784;SDS011;6456;42.680;23.260;2022-11-15T14:19:34;85.43;;;53.93;;
12784;SDS011;6456;42.680;23.260;2022-11-15T14:22:13;80.77;;;50.40;;
12784;SDS011;6456;42.680;23.260;2022-11-15T14:24:44;84.33;;;49.97;;
12784;SDS011;6456;42.680;23.260;2022-11-15T14:27:22;76.17;;;49.30;;
12784;SDS011;6456;42.680;23.260;2022-11-15T14:29:58;86.30;;;50.20;;
12784;SDS011;6456;42.680;23.260;2022-11-15T14:32:26;75.47;;;48.80;;
12784;SDS011;6456;42.680;23.260;2022-11-15T14:34:55;69.67;;;46.17;;
12784;SDS011;6456;42.680;23.260;2022-11-15T14:37:24;72.97;;;45.43;;
12784;SDS011;6456;42.680;23.260;2022-11-15T14:39:54;67.17;;;42.80;;
12784;SDS011;6456;42.680;23.260;2022-11-15T14:42:22;66.60;;;42.80;;
12784;SDS011;6456;42.680;23.260;2022-11-15T14:44:49;71.90;;;41.27;;
12784;SDS011;6456;42.680;23.260;2022-11-15T14:47:17;66.87;;;41.67;;
12784;SDS011;6456;42.680;23.260;2022-11-15T14:49:44;64.47;;;40.13;;
12784;SDS011;6456;42.680;23.260;2022-11-15T14:52:23;64.23;;;41.30;;
12784;SDS011;6456;42.680;23.260;2022-11-15T14:54:54;66.50;;;40.83;;
12784;SDS011;6456;42.680;23.260;2022-11-15T14:57:23;61.40;;;40.10;;
12784;SDS011;6456;42.680;23.260;2022-11-15T14:59:50;63.00;;;40.93;;